Time;durP1;ratioP1;P1;durP2;ratioP2;P2;SDS_P1;SDS_P2;PMS_P1;PMS_P2;Temp;Humidity;BMP_temperature;BMP_pressure;BME280_temperature;BME280_humidity;BME280_pressure;Samples;Min_cycle;Max_cycle;Signal;HPM_P1;HPM_P2
2023/04/23 00:01:01;;;;;;;66.93;40.78;;;;;;;6.76;100.00;100759.75;5075336;28;20100;-81
2023/04/23 00:03:27;;;;;;;71.20;42.72;;;;;;;6.78;100.00;100770.75;5075002;28;20508;-78
2023/04/23 00:05:56;;;;;;;71.18;43.20;;;;;;;6.79;100.00;100776.75;5075656;28;20024;-80
2023/04/23 00:08:22;;;;;;;71.97;43.83;;;;;;;6.66;100.00;100757.69;5075429;28;20061;-80
2023/04/23 00:10:47;;;;;;;79.50;43.65;;;;;;;6.75;100.00;100764.97;5075261;28;20033;-77
2023/04/23 00:13:13;;;;;;;74.30;43.72;;;;;;;6.65;100.00;100756.88;5075331;28;20036;-78
2023/04/23 00:15:39;;;;;;;74.38;43.08;;;;;;;6.68;100.00;100761.84;5074055;28;20033;-76
2023/04/23 00:18:04;;;;;;;75.78;43.10;;;;;;;6.66;100.00;100752.56;5075127;28;20035;-76
2023/04/23 00:20:31;;;;;;;71.40;42.63;;;;;;;6.65;100.00;100751.75;5073973;28;20033;-77
2023/04/23 00:22:56;;;;;;;74.80;44.40;;;;;;;6.63;100.00;100755.28;5075457;28;20027;-76
2023/04/23 00:25:21;;;;;;;77.18;46.38;;;;;;;6.62;100.00;100754.47;5075290;28;20104;-78
2023/04/23 00:27:47;;;;;;;73.80;45.65;;;;;;;6.44;100.00;100722.81;5075412;28;20108;-77
2023/04/23 00:30:12;;;;;;;78.68;46.55;;;;;;;6.29;100.00;100692.75;5075056;28;20016;-77
2023/04/23 00:32:38;;;;;;;83.88;48.25;;;;;;;6.60;100.00;100741.72;5074694;28;20024;-78
2023/04/23 00:35:04;;;;;;;76.90;45.20;;;;;;;6.56;100.00;100750.44;5074957;28;20067;-77
2023/04/23 00:37:30;;;;;;;85.28;46.65;;;;;;;6.57;100.00;100751.25;5074788;28;20035;-77
2023/04/23 00:39:55;;;;;;;88.35;47.22;;;;;;;6.51;100.00;100737.00;5074981;28;20017;-78
2023/04/23 00:42:20;;;;;;;80.90;47.03;;;;;;;6.32;100.00;100703.72;5074881;28;20112;-78
2023/04/23 00:44:46;;;;;;;84.22;49.80;;;;;;;6.25;100.00;100696.38;5074718;28;20035;-77
2023/04/23 00:47:12;;;;;;;85.25;47.63;;;;;;;6.31;100.00;100704.63;5074529;28;20024;-77
2023/04/23 00:49:38;;;;;;;88.05;47.38;;;;;;;6.52;100.00;100736.09;5074871;28;20032;-77
2023/04/23 00:52:03;;;;;;;82.70;43.47;;;;;;;6.52;100.00;100730.16;5074534;28;20028;-77
2023/04/23 00:54:29;;;;;;;78.72;45.95;;;;;;;6.37;100.00;100712.91;5074643;28;20028;-77
2023/04/23 00:56:56;;;;;;;83.88;47.22;;;;;;;6.22;100.00;100678.56;5073341;28;20024;-77
2023/04/23 00:59:24;;;;;;;81.55;45.53;;;;;;;6.53;100.00;100724.09;5074376;28;20036;-77
2023/04/23 01:01:49;;;;;;;81.13;46.53;;;;;;;6.52;100.00;100723.28;5073838;28;20049;-77
2023/04/23 01:04:17;;;;;;;81.88;45.03;;;;;;;6.51;100.00;100705.41;5074420;28;20025;-79
2023/04/23 01:06:43;;;;;;;80.07;43.00;;;;;;;6.52;100.00;100702.75;5074269;28;20473;-77
2023/04/23 01:09:09;;;;;;;76.13;41.92;;;;;;;6.63;100.00;100709.09;5074401;28;20391;-78
2023/04/23 01:11:42;;;;;;;77.75;44.63;;;;;;;6.64;100.00;100701.31;5074252;28;20020;-77
2023/04/23 01:14:08;;;;;;;75.75;44.75;;;;;;;6.68;100.00;100694.31;5074099;28;20043;-77
2023/04/23 01:16:35;;;;;;;74.30;42.92;;;;;;;6.52;100.00;100659.16;5073772;28;20119;-78
2023/04/23 01:19:01;;;;;;;79.13;41.80;;;;;;;6.75;100.00;100686.22;5074237;28;20027;-77
2023/04/23 01:21:28;;;;;;;71.53;42.50;;;;;;;6.68;100.00;100673.78;5074429;28;20578;-78
2023/04/23 01:23:54;;;;;;;65.32;39.70;;;;;;;6.89;100.00;100701.78;5073913;28;20051;-77
2023/04/23 01:26:20;;;;;;;68.50;41.45;;;;;;;6.90;100.00;100700.88;5073791;28;20028;-78
2023/04/23 01:28:46;;;;;;;69.20;40.05;;;;;;;6.53;100.00;100635.16;5072610;28;20455;-77
2023/04/23 01:31:14;;;;;;;65.22;38.78;;;;;;;6.87;100.00;100695.88;5073528;28;20043;-77
2023/04/23 01:33:40;;;;;;;63.85;40.47;;;;;;;6.71;100.00;100671.06;5073943;28;20070;-78
2023/04/23 01:36:07;;;;;;;66.30;37.35;;;;;;;6.84;100.00;100692.66;5073804;28;20028;-78
2023/04/23 01:38:34;;;;;;;64.35;39.40;;;;;;;6.80;100.00;100694.56;5073701;28;20024;-78
2023/04/23 01:41:00;;;;;;;60.03;37.85;;;;;;;6.67;100.00;100678.06;5073330;28;20021;-77
2023/04/23 01:43:26;;;;;;;61.35;38.40;;;;;;;6.61;100.00;100681.78;5073583;28;20035;-77
2023/04/23 01:45:52;;;;;;;60.13;37.08;;;;;;;6.67;100.00;100693.47;5073361;28;20024;-78
2023/04/23 01:48:18;;;;;;;59.90;39.08;;;;;;;6.53;100.00;100675.38;5072074;28;20487;-77
2023/04/23 01:50:43;;;;;;;61.67;37.58;;;;;;;6.59;100.00;100686.16;5073584;28;20025;-78
2023/04/23 01:53:09;;;;;;;64.43;38.63;;;;;;;5.85;100.00;100574.34;5073454;28;20126;-78
2023/04/23 01:55:37;;;;;;;61.55;37.72;;;;;;;6.22;100.00;100635.81;5073259;28;20025;-77
2023/04/23 01:58:02;;;;;;;60.25;37.65;;;;;;;6.55;100.00;100692.34;5073395;28;20025;-78
2023/04/23 02:00:28;;;;;;;62.78;39.38;;;;;;;6.54;100.00;100684.72;5072911;28;20035;-77
2023/04/23 02:02:53;;;;;;;60.40;37.38;;;;;;;6.59;100.00;100687.91;5073035;28;20048;-77
2023/04/23 02:05:20;;;;;;;59.78;37.55;;;;;;;6.44;100.00;100665.53;5073327;28;20051;-77
2023/04/23 02:07:47;;;;;;;59.58;38.55;;;;;;;6.58;100.00;100686.22;5071787;28;20524;-77
2023/04/23 02:10:14;;;;;;;57.05;36.00;;;;;;;6.44;100.00;100655.28;5073139;28;20056;-77
2023/04/23 02:12:39;;;;;;;60.90;37.28;;;;;;;6.37;100.00;100649.63;5072600;28;20440;-77
2023/04/23 02:15:06;;;;;;;54.05;36.00;;;;;;;6.53;100.00;100683.06;5072969;28;20059;-77
2023/04/23 02:17:32;;;;;;;54.58;36.63;;;;;;;6.49;100.00;100684.97;5072728;28;20029;-78
2023/04/23 02:19:57;;;;;;;55.90;34.97;;;;;;;6.45;100.00;100686.00;5072867;28;20563;-77
2023/04/23 02:22:25;;;;;;;54.22;35.70;;;;;;;6.40;100.00;100679.44;5072853;28;20036;-77
2023/04/23 02:24:51;;;;;;;54.97;36.50;;;;;;;6.39;100.00;100672.63;5072837;28;20024;-77
2023/04/23 02:27:18;;;;;;;55.50;36.25;;;;;;;6.35;100.00;100671.94;5071575;28;20036;-77
2023/04/23 02:29:44;;;;;;;53.30;34.70;;;;;;;5.95;100.00;100602.06;5072862;28;20024;-77
2023/04/23 02:32:10;;;;;;;56.58;37.08;;;;;;;6.36;100.00;100677.91;5072403;28;20123;-78
2023/04/23 02:34:35;;;;;;;53.42;35.05;;;;;;;6.32;100.00;100672.09;5072914;28;20021;-77
2023/04/23 02:37:00;;;;;;;51.08;34.83;;;;;;;6.35;100.00;100677.06;5072638;28;20483;-79
2023/04/23 02:39:25;;;;;;;53.28;34.83;;;;;;;6.32;100.00;100677.22;5072868;28;20025;-77
2023/04/23 02:41:51;;;;;;;51.22;34.03;;;;;;;6.27;100.00;100669.75;5072417;28;20099;-77
2023/04/23 02:44:16;;;;;;;53.95;34.28;;;;;;;6.27;100.00;100679.16;5072633;28;20044;-78
2023/04/23 02:46:42;;;;;;;54.05;35.03;;;;;;;6.26;100.00;100673.22;5072085;28;20028;-75
2023/04/23 02:49:07;;;;;;;51.38;32.83;;;;;;;6.25;100.00;100665.59;5071086;28;20060;-78
2023/04/23 02:51:32;;;;;;;57.55;36.38;;;;;;;6.18;100.00;100657.34;5072607;28;20025;-78
2023/04/23 02:53:58;;;;;;;52.30;34.72;;;;;;;6.27;100.00;100674.88;5072594;28;20032;-77
2023/04/23 02:56:23;;;;;;;55.72;35.38;;;;;;;6.28;100.00;100671.41;5072621;28;20046;-78
2023/04/23 02:58:49;;;;;;;48.90;34.35;;;;;;;6.32;100.00;100669.53;5072657;28;20025;-77
2023/04/23 03:01:14;;;;;;;51.08;32.00;;;;;;;6.35;100.00;100676.25;5072285;28;20027;-77
2023/04/23 03:03:40;;;;;;;51.72;34.65;;;;;;;6.24;100.00;100653.69;5071932;28;20198;-77
2023/04/23 03:06:06;;;;;;;53.92;35.50;;;;;;;6.23;100.00;100641.78;5071022;28;20124;-78
2023/04/23 03:08:32;;;;;;;51.67;33.95;;;;;;;6.49;100.00;100677.25;5072327;28;20383;-77
2023/04/23 03:10:57;;;;;;;54.50;34.05;;;;;;;6.47;100.00;100655.13;5072472;28;20025;-80
2023/04/23 03:13:23;;;;;;;53.28;35.42;;;;;;;6.60;100.00;100672.44;5072508;28;20036;-77
2023/04/23 03:15:50;;;;;;;49.58;33.75;;;;;;;6.66;100.00;100665.31;5072251;28;20104;-76
2023/04/23 03:18:15;;;;;;;46.70;33.03;;;;;;;6.42;100.00;100634.03;5072044;28;20064;-77
2023/04/23 03:20:41;;;;;;;51.72;34.08;;;;;;;6.66;100.00;100655.88;5072341;28;20075;-77
2023/04/23 03:23:06;;;;;;;48.78;33.45;;;;;;;6.69;100.00;100658.31;5072408;28;20032;-77
2023/04/23 03:25:32;;;;;;;45.83;34.35;;;;;;;6.44;100.00;100612.50;5076031;28;20411;-77
2023/04/23 03:27:58;;;;;;;49.05;32.13;;;;;;;6.54;100.00;100639.38;5076150;28;20060;-77
2023/04/23 03:30:23;;;;;;;47.05;33.20;;;;;;;6.51;100.00;100641.28;5076236;28;20027;-79
2023/04/23 03:32:49;;;;;;;41.88;30.48;;;;;;;6.52;100.00;100648.06;5075904;28;20021;-77
2023/04/23 03:35:15;;;;;;;43.53;29.00;;;;;;;6.50;100.00;100649.88;5075758;28;20021;-78
2023/04/23 03:37:41;;;;;;;44.60;30.52;;;;;;;6.38;100.00;100641.00;5076157;28;20032;-78
2023/04/23 03:40:08;;;;;;;41.00;29.05;;;;;;;6.43;100.00;100646.75;5075977;28;20472;-78
2023/04/23 03:42:33;;;;;;;41.33;29.83;;;;;;;6.26;100.00;100614.22;5075493;28;20035;-76
2023/04/23 03:44:59;;;;;;;44.47;30.13;;;;;;;6.38;100.00;100629.94;5075812;28;20032;-78
2023/04/23 03:47:25;;;;;;;45.65;30.58;;;;;;;6.55;100.00;100643.59;5075862;28;20028;-79
2023/04/23 03:49:51;;;;;;;45.67;31.13;;;;;;;6.26;100.00;100586.03;5074142;28;20051;-78
2023/04/23 03:52:16;;;;;;;47.78;31.70;;;;;;;6.64;100.00;100651.75;5075752;28;20041;-77
2023/04/23 03:54:42;;;;;;;45.30;31.95;;;;;;;6.65;100.00;100627.75;5075948;28;20032;-77
2023/04/23 03:57:08;;;;;;;46.65;32.13;;;;;;;6.42;100.00;100587.84;5075616;28;20028;-77
2023/04/23 03:59:34;;;;;;;46.13;33.00;;;;;;;6.77;100.00;100630.53;5075678;28;20039;-78
2023/04/23 04:02:02;;;;;;;45.70;32.33;;;;;;;6.75;100.00;100619.50;5073756;28;20485;-78
2023/04/23 04:04:28;;;;;;;45.13;32.97;;;;;;;6.76;100.00;100613.47;5075364;28;20043;-77
2023/04/23 04:06:53;;;;;;;45.67;31.27;;;;;;;7.01;100.00;100653.31;5075515;28;20028;-78
2023/04/23 04:09:19;;;;;;;44.88;31.60;;;;;;;7.02;100.00;100640.38;5074056;28;20170;-81
2023/04/23 04:11:44;;;;;;;42.72;29.83;;;;;;;7.05;100.00;100647.09;5075467;28;20025;-84
2023/04/23 04:14:09;;;;;;;44.38;31.42;;;;;;;7.09;100.00;100653.75;5075303;28;20496;-84
2023/04/23 04:16:35;;;;;;;39.63;30.52;;;;;;;6.87;100.00;100611.19;5075111;28;20028;-79
2023/04/23 04:19:00;;;;;;;42.13;29.85;;;;;;;7.02;100.00;100635.25;5074995;28;20039;-79
2023/04/23 04:21:27;;;;;;;42.10;30.73;;;;;;;7.22;100.00;100646.22;5074000;28;20051;-80
2023/04/23 04:23:52;;;;;;;40.88;30.45;;;;;;;7.05;100.00;100613.72;5075067;28;20032;-78
2023/04/23 04:26:17;;;;;;;42.88;28.50;;;;;;;7.20;100.00;100636.03;5075096;28;20089;-79
2023/04/23 04:28:44;;;;;;;39.65;29.10;;;;;;;7.13;100.00;100620.13;5075298;28;20020;-78
2023/04/23 04:31:09;;;;;;;37.33;28.50;;;;;;;7.38;100.00;100654.81;5075001;28;20028;-78
2023/04/23 04:33:35;;;;;;;39.63;28.48;;;;;;;7.37;100.00;100642.84;5074932;28;20138;-79
2023/04/23 04:36:00;;;;;;;35.65;28.33;;;;;;;7.47;100.00;100654.31;5074302;28;20048;-78
2023/04/23 04:38:27;;;;;;;37.55;28.60;;;;;;;7.32;100.00;100626.88;5074992;28;20325;-79
2023/04/23 04:40:59;;;;;;;38.95;27.95;;;;;;;7.32;100.00;100627.69;5075510;28;20131;-77
2023/04/23 04:43:25;;;;;;;38.17;27.70;;;;;;;7.53;100.00;100656.56;5075595;28;20040;-82
2023/04/23 04:45:50;;;;;;;36.65;27.63;;;;;;;7.58;100.00;100656.34;5074458;28;20028;-78
2023/04/23 04:48:16;;;;;;;37.92;27.25;;;;;;;7.60;100.00;100650.19;5074585;28;20025;-77
2023/04/23 04:50:41;;;;;;;37.53;27.50;;;;;;;7.59;100.00;100643.41;5074442;28;20028;-78
2023/04/23 04:53:06;;;;;;;34.95;25.83;;;;;;;7.62;100.00;100652.69;5074680;28;20029;-78
2023/04/23 04:55:32;;;;;;;33.95;26.05;;;;;;;7.60;100.00;100647.63;5074657;28;20376;-77
2023/04/23 04:57:57;;;;;;;34.20;24.35;;;;;;;7.60;100.00;100647.63;5074502;28;20384;-77
2023/04/23 05:00:28;;;;;;;35.92;26.88;;;;;;;7.58;100.00;100643.47;5074407;28;20025;-78
2023/04/23 05:02:54;;;;;;;32.88;24.77;;;;;;;7.55;100.00;100647.03;5073895;28;20153;-77
2023/04/23 05:05:21;;;;;;;35.25;26.55;;;;;;;7.46;100.00;100627.78;5074222;28;20442;-77
2023/04/23 05:07:46;;;;;;;32.75;25.23;;;;;;;7.59;100.00;100661.38;5074141;28;20039;-78
2023/04/23 05:10:13;;;;;;;33.88;25.65;;;;;;;7.64;100.00;100653.41;5074342;28;20021;-77
2023/04/23 05:12:42;;;;;;;33.38;25.60;;;;;;;7.55;100.00;100630.78;5074095;28;20043;-77
2023/04/23 05:15:09;;;;;;;33.55;26.23;;;;;;;7.71;100.00;100654.75;5074166;28;20036;-76
2023/04/23 05:17:35;;;;;;;31.95;24.90;;;;;;;7.32;100.00;100588.34;5073906;28;20054;-79
2023/04/23 05:20:01;;;;;;;29.52;23.02;;;;;;;7.59;100.00;100627.97;5073854;28;20380;-77
2023/04/23 05:22:26;;;;;;;31.98;24.95;;;;;;;7.56;100.00;100628.13;5073863;28;20043;-77
2023/04/23 05:24:51;;;;;;;34.65;25.20;;;;;;;7.71;100.00;100653.00;5073943;28;20123;-77
2023/04/23 05:27:17;;;;;;;34.20;25.73;;;;;;;7.48;100.00;100602.03;5073691;28;20033;-76
2023/04/23 05:29:42;;;;;;;36.42;27.10;;;;;;;7.97;100.00;100661.88;5072618;28;20052;-76
2023/04/23 05:32:08;;;;;;;36.35;25.80;;;;;;;8.16;100.00;100651.41;5073876;28;20099;-78
2023/04/23 05:34:33;;;;;;;34.53;24.88;;;;;;;8.44;100.00;100658.41;5073560;28;20029;-77
2023/04/23 05:36:58;;;;;;;34.15;24.90;;;;;;;8.52;100.00;100651.09;5073631;28;20054;-78
2023/04/23 05:39:24;;;;;;;31.17;23.05;;;;;;;8.53;100.00;100642.47;5073632;28;20021;-79
2023/04/23 05:41:49;;;;;;;29.40;22.20;;;;;;;8.68;100.00;100663.09;5073283;28;20115;-77
2023/04/23 05:44:15;;;;;;;28.50;22.45;;;;;;;8.71;100.00;100665.50;5073441;28;20090;-78
2023/04/23 05:46:40;;;;;;;29.90;23.88;;;;;;;8.79;100.00;100653.84;5072686;28;20064;-77
2023/04/23 05:49:05;;;;;;;30.35;23.25;;;;;;;8.94;100.00;100651.25;5071904;28;20067;-77
2023/04/23 05:51:30;;;;;;;28.80;22.02;;;;;;;9.07;100.00;100658.19;5073189;28;20067;-77
2023/04/23 05:53:56;;;;;;;28.48;22.95;;;;;;;9.12;100.00;100645.03;5073400;28;20021;-77
2023/04/23 05:56:21;;;;;;;29.77;21.65;;;;;;;9.56;100.00;100641.53;5073140;28;20451;-77
2023/04/23 05:58:46;;;;;;;28.10;21.95;;;;;;;10.77;100.00;100652.69;5071951;28;20041;-77
2023/04/23 06:01:12;;;;;;;26.02;20.90;;;;;;;12.12;100.00;100650.19;5073275;28;20035;-77
2023/04/23 06:03:40;;;;;;;21.38;18.10;;;;;;;13.12;98.88;100618.50;5072795;28;20076;-77
2023/04/23 06:06:06;;;;;;;19.10;14.60;;;;;;;14.25;90.79;100643.28;5071556;28;20043;-77
2023/04/23 06:08:31;;;;;;;18.42;15.23;;;;;;;15.29;84.93;100644.22;5072873;28;20028;-76
2023/04/23 06:10:57;;;;;;;15.77;13.15;;;;;;;15.61;81.47;100644.88;5071300;28;20115;-78
2023/04/23 06:13:22;;;;;;;15.30;12.98;;;;;;;15.55;79.15;100610.75;5073851;28;20035;-79
2023/04/23 06:15:47;;;;;;;16.65;13.23;;;;;;;16.11;77.72;100634.41;5073344;28;20021;-81
2023/04/23 06:18:13;;;;;;;14.15;12.05;;;;;;;16.86;74.24;100615.41;5072935;28;20025;-79
2023/04/23 06:20:38;;;;;;;14.63;11.63;;;;;;;17.73;68.88;100632.47;5071417;28;20047;-77
2023/04/23 06:23:03;;;;;;;15.60;11.68;;;;;;;18.01;65.73;100628.81;5072500;28;20472;-79
2023/04/23 06:25:29;;;;;;;12.80;11.05;;;;;;;18.27;65.57;100628.03;5072795;28;20376;-79
2023/04/23 06:27:56;;;;;;;12.70;10.85;;;;;;;18.64;63.06;100620.00;5072669;28;20103;-79
2023/04/23 06:30:22;;;;;;;14.25;10.48;;;;;;;19.00;63.68;100602.41;5072780;28;20052;-79
2023/04/23 06:32:51;;;;;;;13.55;10.73;;;;;;;19.26;60.79;100601.50;5072859;28;20112;-76
2023/04/23 06:35:16;;;;;;;12.02;10.15;;;;;;;19.52;60.17;100589.16;5055114;28;20466;-78
2023/04/23 06:37:41;;;;;;;12.13;9.52;;;;;;;19.83;58.18;100588.59;5072463;28;20104;-79
2023/04/23 06:40:07;;;;;;;12.70;10.07;;;;;;;19.84;56.98;100595.47;5072463;28;20052;-78
2023/04/23 06:42:32;;;;;;;11.27;9.00;;;;;;;19.77;56.94;100598.75;5072761;28;20419;-78
2023/04/23 06:45:03;;;;;;;11.88;9.98;;;;;;;19.82;56.76;100600.88;5072630;28;20089;-78
2023/04/23 06:47:28;;;;;;;12.63;9.38;;;;;;;20.03;56.03;100608.25;5071320;28;20033;-77
2023/04/23 06:49:54;;;;;;;11.65;9.65;;;;;;;19.83;55.63;100555.34;5072294;28;20036;-78
2023/04/23 06:52:19;;;;;;;14.00;9.30;;;;;;;20.31;54.80;100596.47;5072148;28;20024;-77
2023/04/23 06:54:44;;;;;;;12.27;8.75;;;;;;;20.65;55.03;100600.72;5072323;28;20029;-81
2023/04/23 06:57:10;;;;;;;14.20;9.70;;;;;;;21.06;54.44;100603.22;5072284;28;20025;-81
2023/04/23 06:59:35;;;;;;;11.85;9.00;;;;;;;21.17;52.06;100597.59;5072380;28;20017;-81
2023/04/23 07:02:01;;;;;;;11.40;8.80;;;;;;;20.98;52.30;100601.44;5071955;28;20052;-79
2023/04/23 07:04:26;;;;;;;13.10;8.80;;;;;;;20.85;51.98;100588.84;5072048;28;20028;-81
2023/04/23 07:06:51;;;;;;;10.70;8.05;;;;;;;21.05;52.55;100580.56;5072506;28;20046;-81
2023/04/23 07:09:17;;;;;;;11.40;8.48;;;;;;;21.14;51.65;100595.31;5072157;28;20029;-79
2023/04/23 07:11:42;;;;;;;11.57;8.45;;;;;;;20.72;51.98;100566.72;5072248;28;20090;-80
2023/04/23 07:14:08;;;;;;;13.10;8.88;;;;;;;19.93;54.09;100599.72;5072135;28;20033;-80
2023/04/23 07:16:33;;;;;;;12.68;8.32;;;;;;;18.11;59.54;100571.25;5072169;28;20028;-79
2023/04/23 07:19:01;;;;;;;10.70;8.05;;;;;;;16.62;65.58;100562.91;5072067;28;20020;-79
2023/04/23 07:21:27;;;;;;;11.43;8.30;;;;;;;15.79;69.78;100606.00;5072192;28;20024;-81
2023/04/23 07:23:55;;;;;;;10.38;7.75;;;;;;;14.86;74.96;100575.06;5071882;28;20580;-80
2023/04/23 07:26:20;;;;;;;12.60;9.13;;;;;;;14.24;77.81;100575.91;5072108;28;20032;-80
2023/04/23 07:28:47;;;;;;;12.25;8.55;;;;;;;13.83;81.78;100584.47;5072274;28;20017;-78
2023/04/23 07:31:12;;;;;;;14.57;8.63;;;;;;;13.37;85.19;100554.38;5071995;28;20020;-77
2023/04/23 07:33:38;;;;;;;14.63;9.80;;;;;;;13.49;87.23;100590.56;5069522;28;20071;-75
2023/04/23 07:36:03;;;;;;;12.80;8.75;;;;;;;13.36;88.73;100596.81;5071730;28;20099;-77
2023/04/23 07:38:28;;;;;;;13.55;9.35;;;;;;;13.32;90.11;100588.47;5072134;28;20377;-78
2023/04/23 07:40:54;;;;;;;13.07;8.25;;;;;;;13.18;90.40;100584.34;5071819;28;20096;-78
2023/04/23 07:43:20;;;;;;;14.98;9.02;;;;;;;13.15;91.34;100592.34;5071825;28;20052;-79
2023/04/23 07:45:45;;;;;;;12.82;8.35;;;;;;;13.13;91.71;100578.66;5071914;28;20024;-78
2023/04/23 07:48:11;;;;;;;13.95;7.45;;;;;;;13.12;91.54;100577.03;5071669;28;20376;-78
2023/04/23 07:50:36;;;;;;;11.98;7.60;;;;;;;13.00;91.41;100556.41;5071836;28;20573;-78
2023/04/23 07:53:02;;;;;;;13.23;8.25;;;;;;;13.14;93.36;100576.91;5071819;28;20059;-81
2023/04/23 07:55:27;;;;;;;12.48;8.07;;;;;;;13.04;93.01;100556.06;5071488;28;20060;-78
2023/04/23 07:57:52;;;;;;;11.45;7.70;;;;;;;13.20;92.98;100577.28;5071848;28;20031;-77
2023/04/23 08:00:18;;;;;;;10.90;6.85;;;;;;;13.28;92.66;100573.28;5072021;28;20028;-81
2023/04/23 08:02:43;;;;;;;13.52;7.78;;;;;;;13.29;92.10;100573.16;5071305;28;20389;-81
2023/04/23 08:05:09;;;;;;;12.32;7.05;;;;;;;13.37;94.70;100575.97;5071685;28;20041;-78
2023/04/23 08:07:34;;;;;;;10.90;6.10;;;;;;;13.29;95.02;100549.81;5071837;28;20413;-79
2023/04/23 08:10:03;;;;;;;12.32;6.00;;;;;;;13.48;92.32;100557.81;5073255;28;20021;-82
2023/04/23 08:12:29;;;;;;;11.43;6.47;;;;;;;13.56;92.41;100557.16;5075499;28;20518;-78
2023/04/23 08:14:55;;;;;;;13.00;5.70;;;;;;;13.53;90.92;100551.41;5075456;28;20108;-79
2023/04/23 08:17:20;;;;;;;9.90;5.18;;;;;;;13.55;90.50;100544.31;5075187;28;20108;-77
2023/04/23 08:19:45;;;;;;;12.05;5.60;;;;;;;13.65;90.19;100561.63;5075297;28;20040;-75
2023/04/23 08:22:12;;;;;;;10.27;5.72;;;;;;;13.62;90.72;100553.28;5074920;28;20060;-75
2023/04/23 08:24:37;;;;;;;12.43;5.70;;;;;;;13.53;89.54;100538.44;5074008;28;20043;-75
2023/04/23 08:27:02;;;;;;;10.13;5.40;;;;;;;13.76;91.79;100561.63;5075033;28;20056;-77
2023/04/23 08:29:28;;;;;;;11.60;4.85;;;;;;;13.82;90.38;100560.28;5075015;28;20116;-76
2023/04/23 08:31:53;;;;;;;10.07;4.38;;;;;;;13.67;90.36;100525.19;5074878;28;20032;-77
2023/04/23 08:34:19;;;;;;;12.52;4.93;;;;;;;13.88;89.72;100552.00;5075070;28;20073;-75
2023/04/23 08:36:45;;;;;;;10.27;4.55;;;;;;;13.74;88.67;100523.72;5074725;28;20021;-77
2023/04/23 08:39:10;;;;;;;9.35;4.25;;;;;;;13.98;89.00;100545.13;5075030;28;20017;-78
2023/04/23 08:41:41;;;;;;;10.60;4.28;;;;;;;13.97;87.96;100532.25;5074906;28;20032;-78
2023/04/23 08:44:11;;;;;;;11.80;5.10;;;;;;;14.10;89.17;100550.25;5074741;28;20033;-77
2023/04/23 08:46:42;;;;;;;13.68;4.90;;;;;;;14.03;89.16;100521.34;5074863;28;20098;-79
2023/04/23 08:49:16;;;;;;;14.57;5.15;;;;;;;14.10;88.04;100509.53;5074899;28;20506;-79
2023/04/23 08:51:49;;;;;;;8.68;4.03;;;;;;;14.17;86.03;100508.06;5074822;28;20020;-79
2023/04/23 08:54:20;;;;;;;10.73;3.92;;;;;;;14.50;83.90;100546.03;5074658;28;20029;-78
2023/04/23 08:56:46;;;;;;;10.25;3.88;;;;;;;14.56;82.79;100544.69;5073603;28;20044;-78
2023/04/23 08:59:11;;;;;;;10.80;3.53;;;;;;;14.65;82.52;100543.91;5074784;28;20028;-79
2023/04/23 09:01:37;;;;;;;11.77;3.58;;;;;;;14.76;82.99;100545.59;5073315;28;20037;-78
2023/04/23 09:04:03;;;;;;;11.73;3.30;;;;;;;14.77;80.05;100531.66;5074340;28;20052;-79
2023/04/23 09:06:31;;;;;;;9.90;3.85;;;;;;;14.78;81.17;100528.09;5074370;28;20546;-78
2023/04/23 09:08:57;;;;;;;12.15;3.25;;;;;;;14.96;81.62;100543.91;5075060;28;20031;-74
2023/04/23 09:11:26;;;;;;;11.32;3.47;;;;;;;15.03;79.29;100538.03;5074288;28;20024;-75
2023/04/23 09:13:52;;;;;;;8.90;3.05;;;;;;;15.06;77.91;100526.56;5074268;28;20086;-74
2023/04/23 09:16:17;;;;;;;8.20;3.00;;;;;;;15.16;75.47;100543.84;5074422;28;20024;-77
2023/04/23 09:18:43;;;;;;;10.68;3.03;;;;;;;15.16;76.84;100532.59;5074207;28;20031;-79
2023/04/23 09:21:09;;;;;;;7.55;2.40;;;;;;;15.19;75.63;100529.72;5073985;28;20028;-76
2023/04/23 09:23:38;;;;;;;6.25;2.30;;;;;;;15.04;73.39;100502.44;5072788;28;20048;-75
2023/04/23 09:26:05;;;;;;;8.50;2.85;;;;;;;15.35;73.98;100534.44;5074739;28;20033;-78
2023/04/23 09:28:37;;;;;;;11.65;2.83;;;;;;;15.46;75.25;100534.31;5074204;28;20055;-80
2023/04/23 09:31:05;;;;;;;10.07;2.70;;;;;;;15.32;72.23;100508.66;5073759;28;20028;-79
2023/04/23 09:33:34;;;;;;;8.10;2.47;;;;;;;15.39;72.55;100514.97;5074063;28;20074;-79
2023/04/23 09:36:09;;;;;;;9.90;2.17;;;;;;;15.28;71.21;100502.09;5073861;28;20025;-79
2023/04/23 09:38:34;;;;;;;7.53;2.38;;;;;;;15.31;70.26;100509.63;5073620;28;20016;-81
2023/04/23 09:41:20;;;;;;;8.60;2.58;;;;;;;15.44;72.26;100505.81;5073956;28;20021;-81
2023/04/23 09:43:46;;;;;;;6.13;2.50;;;;;;;15.76;70.62;100534.22;5073750;28;20032;-82
2023/04/23 09:46:12;;;;;;;8.25;2.38;;;;;;;15.89;70.12;100526.13;5073758;28;20377;-81
2023/04/23 09:48:44;;;;;;;8.45;2.10;;;;;;;15.98;69.43;100519.25;5073687;28;20051;-80
2023/04/23 09:51:13;;;;;;;11.40;2.22;;;;;;;16.10;70.82;100523.34;5072202;28;20032;-80
2023/04/23 09:53:43;;;;;;;7.93;2.28;;;;;;;16.10;67.88;100525.13;5073336;28;20025;-81
2023/04/23 09:56:08;;;;;;;9.48;2.40;;;;;;;15.98;67.52;100499.25;5073469;28;20373;-81
2023/04/23 09:58:34;;;;;;;9.27;2.22;;;;;;;15.85;66.77;100497.91;5073536;28;20123;-81
2023/04/23 10:01:07;;;;;;;6.50;2.20;;;;;;;16.04;69.58;100516.94;5073525;28;20029;-81
2023/04/23 10:03:32;;;;;;;7.25;2.30;;;;;;;15.94;66.00;100481.44;5073139;28;20036;-80
2023/04/23 10:05:58;;;;;;;6.88;2.30;;;;;;;15.57;64.91;100411.84;5073054;28;20031;-81
2023/04/23 10:08:24;;;;;;;7.50;2.10;;;;;;;16.17;64.79;100492.38;5073202;28;20453;-82
2023/04/23 10:10:50;;;;;;;4.70;1.88;;;;;;;16.34;64.96;100499.47;5072101;28;20105;-82
2023/04/23 10:13:17;;;;;;;6.75;1.92;;;;;;;15.80;64.16;100367.31;5073290;28;20472;-84
2023/04/23 10:15:46;;;;;;;7.82;2.10;;;;;;;16.87;62.96;100486.63;5073111;28;20464;-83
2023/04/23 10:18:13;;;;;;;5.70;1.80;;;;;;;16.99;61.99;100465.56;5073098;28;20059;-82
2023/04/23 10:20:40;;;;;;;9.55;2.05;;;;;;;17.24;59.56;100480.50;5072880;28;20028;-82
2023/04/23 10:23:08;;;;;;;5.72;1.50;;;;;;;17.58;59.52;100498.94;5072702;28;20468;-83
2023/04/23 10:25:35;;;;;;;8.75;2.08;;;;;;;17.77;58.49;100495.38;5073284;28;20036;-80
2023/04/23 10:28:03;;;;;;;7.55;1.65;;;;;;;17.94;58.04;100499.75;5072908;28;20028;-82
2023/04/23 10:30:29;;;;;;;6.35;2.00;;;;;;;18.00;58.09;100501.78;5072905;28;20483;-81
2023/04/23 10:32:56;;;;;;;6.88;2.00;;;;;;;17.80;57.75;100463.75;5072430;28;20480;-79
2023/04/23 10:35:21;;;;;;;7.05;2.05;;;;;;;17.77;56.40;100459.63;5072638;28;20020;-80
2023/04/23 10:37:48;;;;;;;6.72;1.63;;;;;;;18.02;58.76;100484.16;5072795;28;20499;-81
2023/04/23 10:40:18;;;;;;;7.30;2.20;;;;;;;17.78;59.90;100442.16;5072885;28;20481;-82
2023/04/23 10:42:44;;;;;;;6.30;2.00;;;;;;;17.94;60.12;100449.31;5072623;28;20032;-82
2023/04/23 10:45:16;;;;;;;6.60;1.95;;;;;;;18.04;57.54;100478.75;5072595;28;20063;-82
2023/04/23 10:47:43;;;;;;;8.80;2.50;;;;;;;17.97;58.84;100470.69;5072568;28;20468;-83
2023/04/23 10:50:29;;;;;;;9.18;1.90;;;;;;;18.12;58.11;100478.00;5072411;28;20376;-82
2023/04/23 10:52:56;;;;;;;5.55;1.65;;;;;;;17.97;57.34;100477.72;5071322;28;20070;-82
2023/04/23 10:55:31;;;;;;;3.63;1.50;;;;;;;17.88;58.82;100469.00;5072714;28;20032;-80
2023/04/23 10:58:04;;;;;;;6.22;1.75;;;;;;;17.91;57.66;100468.72;5072744;28;20024;-83
2023/04/23 11:00:45;;;;;;;9.38;2.28;;;;;;;17.83;58.13;100460.00;5072532;28;20441;-83
2023/04/23 11:03:30;;;;;;;6.15;1.75;;;;;;;17.72;58.41;100461.88;5070824;28;20546;-83
2023/04/23 11:05:56;;;;;;;8.00;2.35;;;;;;;17.75;58.65;100460.75;5072386;28;20056;-83
2023/04/23 11:08:21;;;;;;;5.90;1.70;;;;;;;17.81;59.11;100433.22;5072311;28;20031;-83
2023/04/23 11:10:58;;;;;;;6.50;1.90;;;;;;;17.91;56.93;100429.53;5072389;28;20056;-83